Gustavus Airport Gustavus US
ICAO: PAGS
IATA:
Category: Medium
Scheduled Services:

Elevation: 35 ft
TransAlt. 18000 ft.

Airport Communications:
AWOS 3:125.9
ANCHORAGE CNTR:133.2
CTAF:122.5
JUNEAU RDO:122.65

PAGS Zoom In..

If you have problems with the map follow the link
https://www.worldairports.se/pages/airport.php?
ICAO=PAGS

Runways:

(A) RW 02 length 3146 ft width 60 ft
---- / hdg 21

(B) RW 11 length 6721 ft width 150 ft
---- / hdg 115

(C) RW 20 length 3146 ft width 60 ft
---- / hdg 201

(D) RW 29 length 6721 ft width 150 ft
---- / hdg 295

Location; PAGS
Day. 20 / Time. 20.56 Zulu
* Altimeter: 30.22
* Temperature: 02° c. 35.6°f.
* Wind from: 140° Speed 03 kn.
Dewpoint: -01° c.
Visibility: 10 Statute Miles.
Clouds: Few 1100 ft.

PAGS 202056Z AUTO 14003KT 10SM FEW011 02/M01 A3022 RMK AO2 SLP235 T00221006 50001 FZRANO


Wind From 140°
Speed 03 kn.

 
 
jpsmedia.com for Web Design worldairports.se 2019   terms of use